createdAt,value
2022-09-06T00:01:55.379Z,15.44
2022-09-06T00:04:21.919Z,15.44
2022-09-06T00:06:48.424Z,15.53
2022-09-06T00:09:14.852Z,15.53
2022-09-06T00:11:41.340Z,15.46
2022-09-06T00:14:07.832Z,15.46
2022-09-06T00:16:34.832Z,15.43
2022-09-06T00:19:01.318Z,15.43
2022-09-06T00:21:29.978Z,15.40
2022-09-06T00:23:56.535Z,15.37
2022-09-06T00:26:23.622Z,15.28
2022-09-06T00:28:50.211Z,15.24
2022-09-06T00:31:20.252Z,15.17
2022-09-06T00:33:47.357Z,15.11
2022-09-06T00:36:14.478Z,15.11
2022-09-06T00:38:41.794Z,15.13
2022-09-06T00:41:10.823Z,15.09
2022-09-06T00:43:39.795Z,15.13
2022-09-06T00:46:08.674Z,15.10
2022-09-06T00:48:37.553Z,15.09
2022-09-06T00:51:08.044Z,14.97
2022-09-06T00:53:34.640Z,15.12
2022-09-06T00:56:01.683Z,15.12
2022-09-06T00:58:28.540Z,15.00
2022-09-06T01:00:55.378Z,14.90
2022-09-06T01:03:24.388Z,14.88
2022-09-06T01:06:12.368Z,14.84
2022-09-06T01:08:57.851Z,14.80
2022-09-06T01:11:55.322Z,14.67
2022-09-06T01:14:21.900Z,14.61
2022-09-06T01:17:01.426Z,14.50
2022-09-06T01:19:53.012Z,14.50
2022-09-06T01:22:38.711Z,14.45
2022-09-06T01:25:36.678Z,14.41
2022-09-06T01:28:45.989Z,14.38
2022-09-06T01:31:41.620Z,14.37
2022-09-06T01:34:08.062Z,14.34
2022-09-06T01:37:13.938Z,14.32
2022-09-06T01:39:41.569Z,14.26
2022-09-06T01:42:25.568Z,14.20
2022-09-06T01:44:56.460Z,14.11
2022-09-06T01:47:36.970Z,14.15
2022-09-06T01:50:31.673Z,14.09
2022-09-06T01:53:16.010Z,14.06
2022-09-06T01:56:05.119Z,14.00
2022-09-06T01:58:31.548Z,14.03
2022-09-06T02:01:05.390Z,14.01
2022-09-06T02:03:49.785Z,13.93
2022-09-06T02:06:27.014Z,13.93
2022-09-06T02:09:01.892Z,13.94
2022-09-06T02:11:33.752Z,13.86
2022-09-06T02:14:07.117Z,13.84
2022-09-06T02:16:38.278Z,13.81
2022-09-06T02:19:24.199Z,13.80
2022-09-06T02:21:53.997Z,13.77
2022-09-06T02:24:25.784Z,13.72
2022-09-06T02:26:52.322Z,13.63
2022-09-06T02:29:18.889Z,13.56
2022-09-06T02:31:50.748Z,13.52
2022-09-06T02:34:18.394Z,13.50
2022-09-06T02:36:45.842Z,13.46
2022-09-06T02:39:13.171Z,13.47
2022-09-06T02:41:43.593Z,13.45
2022-09-06T02:44:10.062Z,13.39
2022-09-06T02:46:36.596Z,13.35
2022-09-06T02:49:03.729Z,13.29
2022-09-06T02:51:30.247Z,13.39
2022-09-06T02:53:56.953Z,13.43
2022-09-06T02:56:23.420Z,13.43
2022-09-06T02:58:49.990Z,13.28
2022-09-06T03:01:16.477Z,13.27
2022-09-06T03:03:43.011Z,13.33
2022-09-06T03:06:09.518Z,13.30
2022-09-06T03:08:36.554Z,13.28
2022-09-06T03:11:03.092Z,13.30
2022-09-06T03:13:30.022Z,13.18
2022-09-06T03:15:59.326Z,13.15
2022-09-06T03:18:27.426Z,13.11
2022-09-06T03:20:54.884Z,13.11
2022-09-06T03:23:25.142Z,13.10
2022-09-06T03:25:51.868Z,13.11
2022-09-06T03:28:19.132Z,13.08
2022-09-06T03:30:47.139Z,13.12
2022-09-06T03:33:14.016Z,13.10
2022-09-06T03:35:41.784Z,13.07
2022-09-06T03:38:08.249Z,13.09
2022-09-06T03:40:34.692Z,13.08
2022-09-06T03:43:01.141Z,13.07
2022-09-06T03:45:27.577Z,13.02
2022-09-06T03:47:54.034Z,12.91
2022-09-06T03:50:20.506Z,12.88
2022-09-06T03:52:47.107Z,12.78
2022-09-06T03:55:13.589Z,12.84
2022-09-06T03:57:40.088Z,12.75
2022-09-06T04:00:07.131Z,12.78
2022-09-06T04:02:33.680Z,12.76
2022-09-06T04:05:00.169Z,12.76
2022-09-06T04:07:26.766Z,12.69
2022-09-06T04:09:53.245Z,12.69
2022-09-06T04:12:19.773Z,12.66
2022-09-06T04:14:46.232Z,12.63
2022-09-06T04:17:14.326Z,12.60
2022-09-06T04:19:40.758Z,12.66
2022-09-06T04:22:07.251Z,12.66
2022-09-06T04:24:33.697Z,12.62
2022-09-06T04:27:00.126Z,12.58
2022-09-06T04:29:26.587Z,12.56
2022-09-06T04:31:53.081Z,12.55
2022-09-06T04:34:19.799Z,12.55
2022-09-06T04:36:48.405Z,12.58
2022-09-06T04:39:15.479Z,12.55
2022-09-06T04:41:42.620Z,12.53
2022-09-06T04:44:09.202Z,12.53
2022-09-06T04:46:35.703Z,12.61
2022-09-06T04:49:02.202Z,12.62
2022-09-06T04:51:28.731Z,12.54
2022-09-06T04:53:55.282Z,12.61
2022-09-06T04:56:23.649Z,12.76
2022-09-06T04:58:51.689Z,12.83
2022-09-06T05:01:18.671Z,12.91
2022-09-06T05:03:45.249Z,12.89
2022-09-06T05:06:23.196Z,12.86
2022-09-06T05:08:50.124Z,13.00
2022-09-06T05:11:16.999Z,13.09
2022-09-06T05:13:43.531Z,13.24
2022-09-06T05:16:10.442Z,13.34
2022-09-06T05:18:37.036Z,13.34
2022-09-06T05:21:03.686Z,13.43
2022-09-06T05:23:30.209Z,13.49
2022-09-06T05:25:56.681Z,13.52
2022-09-06T05:28:23.285Z,13.59
2022-09-06T05:30:49.893Z,13.64
2022-09-06T05:33:21.401Z,13.63
2022-09-06T05:35:48.776Z,13.67
2022-09-06T05:38:15.309Z,13.69
2022-09-06T05:40:41.764Z,13.86
2022-09-06T05:43:08.274Z,13.97
2022-09-06T05:45:34.805Z,14.09
2022-09-06T05:48:01.402Z,14.15
2022-09-06T05:50:27.861Z,14.30
2022-09-06T05:52:54.564Z,14.46
2022-09-06T05:55:21.055Z,14.69
2022-09-06T05:57:47.558Z,14.85
2022-09-06T06:00:14.392Z,15.03
2022-09-06T06:02:41.031Z,15.24
2022-09-06T06:05:08.112Z,16.03
2022-09-06T06:07:34.959Z,17.16
2022-09-06T06:10:01.668Z,18.18
2022-09-06T06:12:28.157Z,18.99
2022-09-06T06:14:54.619Z,19.33
2022-09-06T06:17:21.365Z,19.53
2022-09-06T06:19:48.010Z,20.00
2022-09-06T06:22:14.467Z,20.42
2022-09-06T06:24:40.947Z,21.20
2022-09-06T06:27:08.593Z,22.12
2022-09-06T06:29:35.148Z,21.40
2022-09-06T06:32:01.758Z,22.11
2022-09-06T06:34:28.249Z,22.32
2022-09-06T06:36:54.702Z,21.92
2022-09-06T06:39:21.209Z,21.66
2022-09-06T06:41:49.701Z,21.62
2022-09-06T06:44:16.320Z,22.32
2022-09-06T06:46:42.805Z,23.49
2022-09-06T06:49:09.292Z,23.96
2022-09-06T06:51:39.484Z,23.73
2022-09-06T06:54:06.454Z,23.73
2022-09-06T06:56:36.264Z,23.47
2022-09-06T06:59:05.528Z,24.32
2022-09-06T07:01:34.006Z,24.12
2022-09-06T07:04:00.681Z,24.27
2022-09-06T07:09:19.293Z,24.89
2022-09-06T07:11:46.621Z,25.47
2022-09-06T07:14:13.311Z,26.10
2022-09-06T07:16:39.822Z,26.16
2022-09-06T07:19:06.707Z,24.26
2022-09-06T07:26:38.207Z,24.76
2022-09-06T07:29:06.896Z,24.30
2022-09-06T07:34:21.005Z,25.87
2022-09-06T07:36:48.227Z,25.63
2022-09-06T07:39:14.731Z,25.72
2022-09-06T07:41:42.497Z,25.16
2022-09-06T07:44:09.011Z,24.39
2022-09-06T07:46:35.568Z,23.92
2022-09-06T07:49:05.369Z,25.10
2022-09-06T07:51:32.442Z,25.59
2022-09-06T07:54:19.402Z,24.13
2022-09-06T07:56:45.861Z,24.10
2022-09-06T07:59:12.628Z,24.39
2022-09-06T08:01:39.715Z,24.92
2022-09-06T08:04:08.680Z,25.26
2022-09-06T08:09:25.385Z,25.35
2022-09-06T08:11:52.812Z,25.62
2022-09-06T08:14:20.050Z,25.73
2022-09-06T08:16:46.571Z,26.00
2022-09-06T08:19:14.409Z,26.28
2022-09-06T08:21:41.372Z,26.28
2022-09-06T08:24:12.520Z,26.16
2022-09-06T08:26:43.184Z,25.70
2022-09-06T08:29:10.991Z,26.10
2022-09-06T08:31:39.938Z,26.21
2022-09-06T08:34:07.058Z,26.77
2022-09-06T08:36:35.418Z,26.26
2022-09-06T08:39:07.790Z,26.22
2022-09-06T08:41:46.496Z,26.12
2022-09-06T08:47:09.700Z,26.59
2022-09-06T08:49:43.473Z,25.50
2022-09-06T08:52:41.742Z,26.18
2022-09-06T08:55:23.936Z,26.98
2022-09-06T08:57:56.542Z,26.67
2022-09-06T09:00:23.653Z,27.05
2022-09-06T09:02:59.693Z,27.01
2022-09-06T09:05:31.468Z,27.07
2022-09-06T09:08:13.169Z,26.84
2022-09-06T09:10:47.413Z,26.43
2022-09-06T09:13:55.834Z,25.62
2022-09-06T09:16:23.865Z,25.04
2022-09-06T09:18:53.806Z,25.76
2022-09-06T09:21:28.130Z,25.32
2022-09-06T09:24:01.765Z,24.76
2022-09-06T09:26:31.008Z,23.94
2022-09-06T09:29:12.589Z,25.27
2022-09-06T09:31:39.280Z,26.41
2022-09-06T09:34:11.387Z,26.80
2022-09-06T09:36:38.256Z,27.76
2022-09-06T09:39:12.140Z,26.64
2022-09-06T09:41:43.031Z,27.26
2022-09-06T09:44:16.297Z,28.06
2022-09-06T09:46:43.468Z,27.71
2022-09-06T09:49:28.821Z,27.83
2022-09-06T09:52:13.040Z,27.23
2022-09-06T09:54:44.894Z,27.07
2022-09-06T09:57:17.274Z,27.35
2022-09-06T09:59:52.280Z,27.15
2022-09-06T10:02:26.030Z,26.63
2022-09-06T10:04:59.375Z,25.95
2022-09-06T10:07:26.371Z,26.55
2022-09-06T10:10:10.811Z,26.36
2022-09-06T10:12:39.720Z,26.15
2022-09-06T10:15:36.628Z,25.95
2022-09-06T10:18:03.829Z,25.52
2022-09-06T10:20:39.856Z,26.03
2022-09-06T10:26:29.326Z,25.68
2022-09-06T10:29:04.806Z,25.13
2022-09-06T10:31:42.183Z,24.88
2022-09-06T10:34:42.112Z,24.59
2022-09-06T10:37:33.246Z,24.42
2022-09-06T10:40:10.781Z,25.22
2022-09-06T10:42:50.258Z,25.70
2022-09-06T10:45:34.934Z,25.57
2022-09-06T10:48:23.996Z,25.50
2022-09-06T10:51:18.943Z,25.61
2022-09-06T10:54:07.829Z,25.42
2022-09-06T10:56:57.163Z,25.40
2022-09-06T10:59:38.344Z,25.59
2022-09-06T11:02:34.160Z,25.48
2022-09-06T11:10:51.087Z,25.30
2022-09-06T11:13:22.278Z,25.09
2022-09-06T11:16:07.967Z,24.94
2022-09-06T11:18:43.330Z,24.71
2022-09-06T11:21:28.379Z,24.93
2022-09-06T11:24:12.203Z,25.16
2022-09-06T11:26:58.556Z,25.49
2022-09-06T11:29:27.763Z,25.68
2022-09-06T11:34:53.625Z,25.39
2022-09-06T11:37:26.132Z,25.19
2022-09-06T11:42:55.221Z,25.42
2022-09-06T11:45:43.643Z,25.38
2022-09-06T11:48:26.657Z,25.53
2022-09-06T11:50:59.169Z,25.67
2022-09-06T11:53:28.696Z,25.87
2022-09-06T11:56:01.137Z,25.49
2022-09-06T11:58:39.949Z,25.69
2022-09-06T12:01:12.512Z,25.81
2022-09-06T12:06:38.879Z,26.01
2022-09-06T12:09:34.438Z,25.85
2022-09-06T12:12:02.290Z,26.01
2022-09-06T12:14:43.587Z,26.16
2022-09-06T12:17:11.304Z,26.25
2022-09-06T12:19:44.082Z,26.33
2022-09-06T12:22:32.827Z,26.29
2022-09-06T12:25:18.438Z,26.48
2022-09-06T12:27:59.715Z,26.35
2022-09-06T12:30:36.075Z,26.30
2022-09-06T12:33:07.711Z,26.22
2022-09-06T12:38:25.652Z,26.45
2022-09-06T12:40:56.431Z,26.32
2022-09-06T12:43:22.997Z,26.30
2022-09-06T12:45:52.433Z,26.36
2022-09-06T12:48:30.631Z,26.35
2022-09-06T12:51:06.277Z,26.35
2022-09-06T12:53:34.460Z,26.51
2022-09-06T12:56:10.052Z,26.53
2022-09-06T12:58:37.388Z,26.71
2022-09-06T13:01:11.088Z,26.78
2022-09-06T13:03:58.245Z,26.71
2022-09-06T13:06:27.366Z,26.79
2022-09-06T13:08:56.013Z,26.67
2022-09-06T13:11:44.094Z,27.00
2022-09-06T13:14:21.553Z,26.82
2022-09-06T13:16:51.002Z,26.87
2022-09-06T13:19:18.941Z,26.76
2022-09-06T13:21:46.777Z,26.41
2022-09-06T13:24:47.013Z,26.48
2022-09-06T13:27:32.478Z,26.67
2022-09-06T13:30:05.889Z,26.77
2022-09-06T13:32:35.021Z,26.99
2022-09-06T13:35:02.459Z,27.24
2022-09-06T13:37:31.541Z,27.38
2022-09-06T13:39:59.762Z,27.21
2022-09-06T13:42:35.591Z,27.25
2022-09-06T13:45:27.370Z,27.09
2022-09-06T13:48:03.506Z,27.25
2022-09-06T13:50:40.753Z,27.41
2022-09-06T13:53:07.463Z,27.36
2022-09-06T13:55:34.453Z,27.40
2022-09-06T13:58:00.958Z,27.35
2022-09-06T14:00:28.292Z,27.03
2022-09-06T14:02:55.693Z,27.07
2022-09-06T14:05:22.375Z,26.81
2022-09-06T14:07:48.846Z,26.98
2022-09-06T14:10:15.580Z,27.13
2022-09-06T14:12:43.288Z,26.99
2022-09-06T14:15:09.988Z,27.17
2022-09-06T14:17:36.655Z,27.12
2022-09-06T14:20:03.943Z,27.15
2022-09-06T14:22:32.616Z,27.27
2022-09-06T14:24:59.109Z,27.20
2022-09-06T14:27:25.629Z,26.97
2022-09-06T14:29:55.014Z,26.78
2022-09-06T14:32:22.681Z,26.20
2022-09-06T14:34:49.375Z,25.73
2022-09-06T14:37:16.219Z,25.83
2022-09-06T14:39:43.254Z,26.01
2022-09-06T14:42:10.317Z,26.07
2022-09-06T14:44:37.207Z,26.21
2022-09-06T14:47:03.966Z,26.38
2022-09-06T14:49:33.793Z,26.25
2022-09-06T14:52:00.713Z,26.18
2022-09-06T14:54:29.423Z,26.14
2022-09-06T14:56:56.499Z,26.10
2022-09-06T14:59:22.999Z,26.04
2022-09-06T15:01:49.521Z,25.77
2022-09-06T15:04:16.541Z,25.70
2022-09-06T15:06:46.983Z,25.58
2022-09-06T15:09:14.883Z,25.53
2022-09-06T15:11:43.944Z,25.43
2022-09-06T15:14:15.350Z,25.23
2022-09-06T15:16:41.915Z,25.00
2022-09-06T15:19:08.931Z,25.03
2022-09-06T15:21:35.767Z,25.05
2022-09-06T15:24:03.285Z,25.01
2022-09-06T15:26:30.485Z,24.88
2022-09-06T15:28:57.584Z,24.79
2022-09-06T15:31:24.227Z,24.79
2022-09-06T15:33:51.659Z,24.68
2022-09-06T15:36:18.583Z,24.56
2022-09-06T15:38:48.209Z,24.60
2022-09-06T15:41:22.241Z,24.70
2022-09-06T15:43:50.986Z,24.84
2022-09-06T15:46:21.290Z,24.80
2022-09-06T15:48:50.224Z,24.82
2022-09-06T15:51:22.306Z,24.81
2022-09-06T15:53:49.117Z,24.84
2022-09-06T15:56:17.322Z,24.90
2022-09-06T15:58:48.031Z,24.83
2022-09-06T16:01:23.372Z,24.79
2022-09-06T16:03:58.612Z,24.71
2022-09-06T16:06:27.792Z,24.61
2022-09-06T16:09:07.831Z,24.57
2022-09-06T16:11:36.985Z,24.62
2022-09-06T16:14:09.959Z,24.72
2022-09-06T16:16:40.831Z,24.77
2022-09-06T16:19:08.090Z,24.72
2022-09-06T16:21:37.547Z,24.80
2022-09-06T16:24:08.824Z,24.79
2022-09-06T16:26:38.377Z,24.80
2022-09-06T16:29:06.572Z,24.71
2022-09-06T16:31:40.092Z,24.55
2022-09-06T16:34:08.281Z,24.54
2022-09-06T16:36:34.963Z,24.42
2022-09-06T16:39:01.679Z,24.25
2022-09-06T16:41:36.973Z,24.09
2022-09-06T16:44:03.463Z,23.93
2022-09-06T16:46:30.032Z,23.72
2022-09-06T16:49:03.003Z,23.62
2022-09-06T16:51:31.788Z,23.48
2022-09-06T16:53:59.519Z,23.29
2022-09-06T16:56:28.684Z,23.14
2022-09-06T16:58:58.585Z,23.03
2022-09-06T17:01:27.135Z,22.91
2022-09-06T17:03:54.443Z,22.77
2022-09-06T17:06:23.173Z,22.59
2022-09-06T17:08:51.032Z,22.48
2022-09-06T17:11:20.318Z,22.29
2022-09-06T17:13:49.279Z,22.21
2022-09-06T17:16:35.158Z,22.08
2022-09-06T17:19:02.429Z,21.88
2022-09-06T17:21:29.772Z,21.79
2022-09-06T17:23:58.661Z,21.60
2022-09-06T17:26:25.251Z,21.49
2022-09-06T17:28:51.772Z,21.38
2022-09-06T17:31:23.667Z,21.29
2022-09-06T17:33:52.456Z,21.17
2022-09-06T17:36:23.685Z,21.08
2022-09-06T17:38:53.636Z,20.97
2022-09-06T17:41:27.440Z,20.91
2022-09-06T17:43:54.926Z,20.71
2022-09-06T17:46:28.355Z,20.70
2022-09-06T17:48:56.208Z,20.57
2022-09-06T17:51:23.254Z,20.45
2022-09-06T17:53:49.978Z,20.36
2022-09-06T17:56:18.024Z,20.18
2022-09-06T17:58:53.308Z,20.24
2022-09-06T18:01:20.057Z,20.11
2022-09-06T18:03:47.413Z,20.08
2022-09-06T18:06:16.116Z,19.98
2022-09-06T18:08:43.819Z,19.90
2022-09-06T18:11:13.319Z,19.80
2022-09-06T18:13:41.963Z,19.73
2022-09-06T18:16:10.149Z,19.65
2022-09-06T18:18:36.853Z,19.59
2022-09-06T18:21:06.903Z,19.48
2022-09-06T18:23:34.206Z,19.44
2022-09-06T18:26:03.701Z,19.38
2022-09-06T18:28:31.747Z,19.33
2022-09-06T18:30:59.846Z,19.18
2022-09-06T18:33:27.254Z,19.18
2022-09-06T18:35:53.751Z,19.13
2022-09-06T18:38:20.790Z,19.07
2022-09-06T18:40:52.316Z,19.02
2022-09-06T18:43:19.690Z,18.93
2022-09-06T18:45:46.563Z,18.80
2022-09-06T18:48:13.519Z,18.80
2022-09-06T18:50:40.272Z,18.74
2022-09-06T18:53:07.092Z,18.64
2022-09-06T18:55:38.233Z,18.69
2022-09-06T18:58:05.973Z,18.64
2022-09-06T19:00:32.500Z,18.40
2022-09-06T19:02:59.052Z,18.46
2022-09-06T19:05:25.776Z,18.49
2022-09-06T19:07:52.455Z,18.41
2022-09-06T19:10:18.951Z,18.26
2022-09-06T19:12:45.401Z,18.33
2022-09-06T19:15:12.094Z,18.29
2022-09-06T19:17:38.863Z,18.20
2022-09-06T19:20:06.408Z,18.20
2022-09-06T19:22:33.200Z,18.09
2022-09-06T19:24:59.943Z,18.11
2022-09-06T19:27:27.336Z,18.07
2022-09-06T19:29:53.816Z,18.06
2022-09-06T19:32:22.263Z,17.94
2022-09-06T19:34:49.329Z,18.04
2022-09-06T19:37:19.086Z,17.85
2022-09-06T19:39:45.997Z,17.87
2022-09-06T19:42:12.771Z,17.83
2022-09-06T19:44:39.374Z,17.80
2022-09-06T19:47:06.053Z,17.72
2022-09-06T19:49:32.533Z,17.76
2022-09-06T19:51:58.997Z,17.72
2022-09-06T19:54:25.578Z,17.61
2022-09-06T19:56:52.099Z,17.59
2022-09-06T19:59:18.661Z,17.61
2022-09-06T20:01:46.637Z,17.64
2022-09-06T20:04:14.069Z,17.63
2022-09-06T20:06:41.138Z,17.55
2022-09-06T20:09:09.943Z,17.49
2022-09-06T20:11:37.812Z,17.44
2022-09-06T20:14:04.794Z,17.37
2022-09-06T20:16:31.607Z,17.34
2022-09-06T20:18:59.106Z,17.33
2022-09-06T20:21:26.877Z,17.21
2022-09-06T20:23:55.517Z,17.24
2022-09-06T20:26:24.196Z,17.15
2022-09-06T20:28:58.570Z,17.13
2022-09-06T20:31:26.192Z,17.14
2022-09-06T20:33:52.775Z,17.12
2022-09-06T20:36:19.933Z,17.07
2022-09-06T20:38:47.619Z,17.02
2022-09-06T20:41:17.510Z,17.02
2022-09-06T20:43:44.478Z,17.00
2022-09-06T20:46:18.053Z,16.99
2022-09-06T20:48:46.140Z,16.93
2022-09-06T20:51:19.320Z,16.77
2022-09-06T20:53:53.294Z,16.74
2022-09-06T20:56:22.619Z,16.68
2022-09-06T20:58:54.308Z,16.65
2022-09-06T21:01:23.473Z,16.61
2022-09-06T21:03:52.342Z,16.53
2022-09-06T21:06:20.428Z,16.48
2022-09-06T21:08:48.093Z,16.46
2022-09-06T21:11:14.844Z,16.43
2022-09-06T21:13:41.414Z,16.49
2022-09-06T21:16:08.086Z,16.42
2022-09-06T21:18:36.077Z,16.48
2022-09-06T21:21:06.049Z,16.43
2022-09-06T21:23:38.001Z,16.41
2022-09-06T21:26:05.988Z,16.33
2022-09-06T21:28:35.119Z,16.28
2022-09-06T21:31:02.735Z,16.21
2022-09-06T21:33:33.157Z,16.20
2022-09-06T21:36:06.999Z,16.18
2022-09-06T21:38:34.804Z,16.10
2022-09-06T21:41:02.022Z,16.09
2022-09-06T21:43:28.788Z,16.11
2022-09-06T21:45:55.417Z,16.13
2022-09-06T21:48:21.853Z,16.02
2022-09-06T21:50:49.060Z,16.12
2022-09-06T21:53:16.447Z,16.09
2022-09-06T21:55:43.879Z,16.07
2022-09-06T21:58:13.843Z,16.05
2022-09-06T22:00:41.670Z,15.98
2022-09-06T22:03:09.016Z,15.80
2022-09-06T22:05:35.495Z,15.71
2022-09-06T22:08:02.387Z,15.72
2022-09-06T22:10:29.074Z,15.75
2022-09-06T22:12:55.543Z,15.71
2022-09-06T22:15:23.626Z,15.70
2022-09-06T22:17:50.118Z,15.67
2022-09-06T22:20:16.724Z,15.64
2022-09-06T22:22:46.195Z,15.57
2022-09-06T22:25:13.771Z,15.58
2022-09-06T22:27:41.057Z,15.51
2022-09-06T22:30:08.424Z,15.51
2022-09-06T22:32:35.421Z,15.56
2022-09-06T22:35:02.168Z,15.53
2022-09-06T22:37:28.638Z,15.54
2022-09-06T22:39:55.137Z,15.49
2022-09-06T22:42:21.609Z,15.55
2022-09-06T22:44:48.134Z,15.53
2022-09-06T22:47:15.151Z,15.51
2022-09-06T22:49:41.603Z,15.49
2022-09-06T22:52:08.110Z,15.48
2022-09-06T22:54:34.668Z,15.42
2022-09-06T22:57:01.153Z,15.39
2022-09-06T22:59:27.754Z,15.32
2022-09-06T23:01:54.224Z,15.30
2022-09-06T23:04:20.753Z,15.34
2022-09-06T23:06:47.512Z,15.34
2022-09-06T23:09:14.057Z,15.25
2022-09-06T23:11:40.544Z,15.24
2022-09-06T23:14:06.972Z,15.18
2022-09-06T23:16:33.790Z,15.16
2022-09-06T23:19:00.297Z,15.15
2022-09-06T23:21:26.917Z,15.14
2022-09-06T23:23:55.376Z,14.99
2022-09-06T23:26:24.578Z,15.14
2022-09-06T23:28:56.358Z,15.13
2022-09-06T23:31:24.003Z,15.10
2022-09-06T23:33:55.139Z,15.06
2022-09-06T23:36:21.726Z,15.10
2022-09-06T23:38:48.820Z,15.03
2022-09-06T23:41:15.795Z,15.04
2022-09-06T23:43:43.362Z,14.97
2022-09-06T23:46:12.121Z,14.87
2022-09-06T23:48:38.629Z,14.77
2022-09-06T23:51:05.510Z,14.74
2022-09-06T23:53:32.088Z,14.78
2022-09-06T23:55:58.801Z,14.74
2022-09-06T23:58:25.691Z,14.80
